createdAt,value
2022-08-12T00:02:42.947Z,101794.22
2022-08-12T00:05:30.159Z,101796.09
2022-08-12T00:08:17.101Z,101795.63
2022-08-12T00:11:14.938Z,101800.94
2022-08-12T00:14:00.346Z,101806.28
2022-08-12T00:16:48.906Z,101805.78
2022-08-12T00:19:34.353Z,101806.88
2022-08-12T00:22:20.094Z,101802.94
2022-08-12T00:25:06.126Z,101801.66
2022-08-12T00:27:51.455Z,101801.97
2022-08-12T00:30:36.328Z,101808.88
2022-08-12T00:33:22.126Z,101800.41
2022-08-12T00:36:32.190Z,101798.63
2022-08-12T00:39:17.139Z,101802.34
2022-08-12T00:42:02.867Z,101796.28
2022-08-12T00:44:29.392Z,101790.75
2022-08-12T00:46:58.645Z,101790.50
2022-08-12T00:49:27.746Z,101792.38
2022-08-12T00:52:11.824Z,101799.25
2022-08-12T00:54:40.066Z,101792.16
2022-08-12T00:57:29.124Z,101789.78
2022-08-12T00:59:56.947Z,101799.59
2022-08-12T01:02:26.905Z,101792.75
2022-08-12T01:05:16.797Z,101789.88
2022-08-12T01:08:03.681Z,101795.44
2022-08-12T01:10:50.500Z,101792.31
2022-08-12T01:13:20.362Z,101794.69
2022-08-12T01:15:49.747Z,101784.16
2022-08-12T01:18:19.032Z,101792.63
2022-08-12T01:20:51.599Z,101790.78
2022-08-12T01:23:38.261Z,101793.19
2022-08-12T01:26:07.817Z,101798.22
2022-08-12T01:28:35.692Z,101789.53
2022-08-12T01:31:05.904Z,101796.91
2022-08-12T01:33:46.456Z,101785.59
2022-08-12T01:36:17.299Z,101788.25
2022-08-12T01:38:48.010Z,101791.44
2022-08-12T01:41:16.627Z,101786.97
2022-08-12T01:43:44.504Z,101793.06
2022-08-12T01:46:39.114Z,101787.28
2022-08-12T01:49:41.423Z,101780.97
2022-08-12T01:52:22.375Z,101783.34
2022-08-12T01:54:50.669Z,101783.34
2022-08-12T01:57:57.796Z,101784.41
2022-08-12T02:00:13.814Z,101778.09
2022-08-12T02:02:46.769Z,101785.75
2022-08-12T02:05:54.771Z,101781.78
2022-08-12T02:09:05.911Z,101774.44
2022-08-12T02:11:35.385Z,101772.06
2022-08-12T02:14:11.348Z,101768.69
2022-08-12T02:17:15.382Z,101763.94
2022-08-12T02:19:56.881Z,101756.28
2022-08-12T02:22:38.640Z,101760.25
2022-08-12T02:25:18.001Z,101762.91
2022-08-12T02:27:49.643Z,101765.53
2022-08-12T02:30:19.792Z,101767.41
2022-08-12T02:32:48.737Z,101762.69
2022-08-12T02:35:20.999Z,101764.53
2022-08-12T02:37:52.329Z,101772.97
2022-08-12T02:40:20.364Z,101769.03
2022-08-12T02:42:52.255Z,101758.75
2022-08-12T02:45:24.927Z,101760.34
2022-08-12T02:47:58.632Z,101757.44
2022-08-12T02:50:31.466Z,101764.59
2022-08-12T02:52:59.468Z,101772.25
2022-08-12T02:55:34.940Z,101771.22
2022-08-12T02:58:12.522Z,101764.63
2022-08-12T03:00:43.160Z,101762.50
2022-08-12T03:03:12.995Z,101757.78
2022-08-12T03:05:57.763Z,101763.06
2022-08-12T03:08:31.891Z,101752.00
2022-08-12T03:11:11.946Z,101754.34
2022-08-12T03:13:45.496Z,101749.59
2022-08-12T03:16:12.029Z,101746.97
2022-08-12T03:18:45.680Z,101756.97
2022-08-12T03:21:15.429Z,101753.56
2022-08-12T03:23:44.513Z,101747.50
2022-08-12T03:26:11.598Z,101746.47
2022-08-12T03:28:50.381Z,101749.88
2022-08-12T03:31:19.763Z,101743.56
2022-08-12T03:34:02.021Z,101739.63
2022-08-12T03:36:33.393Z,101740.69
2022-08-12T03:39:16.589Z,101735.94
2022-08-12T03:42:24.007Z,101730.94
2022-08-12T03:45:15.276Z,101734.63
2022-08-12T03:48:30.127Z,101740.97
2022-08-12T03:51:15.960Z,101734.63
2022-08-12T03:54:01.943Z,101730.66
2022-08-12T03:56:47.884Z,101733.31
2022-08-12T03:59:33.276Z,101742.28
2022-08-12T04:01:59.736Z,101741.22
2022-08-12T04:04:34.597Z,101743.84
2022-08-12T04:07:08.750Z,101739.13
2022-08-12T04:09:37.630Z,101743.06
2022-08-12T04:12:26.186Z,101746.75
2022-08-12T04:14:54.687Z,101742.78
2022-08-12T04:17:21.233Z,101743.56
2022-08-12T04:19:48.925Z,101750.97
2022-08-12T04:22:16.358Z,101743.56
2022-08-12T04:24:44.167Z,101736.47
2022-08-12T04:27:17.246Z,101744.09
2022-08-12T04:30:21.291Z,101742.47
2022-08-12T04:32:31.983Z,101740.91
2022-08-12T04:34:58.950Z,101739.34
2022-08-12T04:37:25.547Z,101736.19
2022-08-12T04:39:54.020Z,101733.81
2022-08-12T04:42:21.642Z,101729.84
2022-08-12T04:44:48.426Z,101741.44
2022-08-12T04:47:16.803Z,101741.94
2022-08-12T04:49:45.081Z,101742.47
2022-08-12T04:52:12.023Z,101741.69
2022-08-12T04:54:38.647Z,101750.91
2022-08-12T04:57:09.221Z,101749.31
2022-08-12T04:59:46.991Z,101744.81
2022-08-12T05:02:21.399Z,101739.81
2022-08-12T05:04:51.556Z,101748.78
2022-08-12T05:07:18.630Z,101755.34
2022-08-12T05:09:58.981Z,101749.84
2022-08-12T05:12:34.210Z,101755.63
2022-08-12T05:15:00.923Z,101741.94
2022-08-12T05:17:28.021Z,101748.50
2022-08-12T05:19:57.118Z,101757.19
2022-08-12T05:22:26.149Z,101749.03
2022-08-12T05:24:53.183Z,101745.34
2022-08-12T05:27:19.704Z,101753.00
2022-08-12T05:30:06.790Z,101746.41
2022-08-12T05:32:36.491Z,101748.50
2022-08-12T05:35:06.307Z,101758.00
2022-08-12T05:37:34.663Z,101754.81
2022-08-12T05:40:09.915Z,101760.63
2022-08-12T05:42:37.769Z,101757.22
2022-08-12T05:45:04.635Z,101753.28
2022-08-12T05:47:53.311Z,101760.63
2022-08-12T05:50:17.657Z,101761.19
2022-08-12T05:52:44.126Z,101768.81
2022-08-12T05:55:11.692Z,101768.56
2022-08-12T05:57:39.032Z,101759.88
2022-08-12T06:00:06.469Z,101769.38
2022-08-12T06:02:38.076Z,101768.34
2022-08-12T06:05:07.427Z,101761.50
2022-08-12T06:08:01.639Z,101765.72
2022-08-12T06:10:32.610Z,101772.81
2022-08-12T06:13:04.246Z,101772.28
2022-08-12T06:15:31.592Z,101781.53
2022-08-12T06:18:29.291Z,101774.41
2022-08-12T06:21:00.255Z,101776.53
2022-08-12T06:23:29.462Z,101774.66
2022-08-12T06:25:56.614Z,101774.44
2022-08-12T06:28:23.381Z,101770.72
2022-08-12T06:31:14.829Z,101777.31
2022-08-12T06:33:57.889Z,101774.66
2022-08-12T06:36:29.755Z,101779.41
2022-08-12T06:38:59.190Z,101784.97
2022-08-12T06:42:02.499Z,101787.34
2022-08-12T06:44:32.452Z,101789.94
2022-08-12T06:46:59.008Z,101782.06
2022-08-12T06:49:25.630Z,101776.50
2022-08-12T06:51:56.643Z,101769.94
2022-08-12T06:54:31.173Z,101780.44
2022-08-12T06:58:05.396Z,101776.25
2022-08-12T06:59:48.496Z,101781.53
2022-08-12T07:02:15.114Z,101777.28
2022-08-12T07:04:42.138Z,101783.09
2022-08-12T07:07:10.001Z,101778.63
2022-08-12T07:10:04.628Z,101776.75
2022-08-12T07:12:28.049Z,101773.59
2022-08-12T07:14:57.354Z,101772.00
2022-08-12T07:17:24.068Z,101781.22
2022-08-12T07:19:51.929Z,101779.34
2022-08-12T07:22:18.784Z,101777.50
2022-08-12T07:25:05.446Z,101781.97
2022-08-12T07:27:37.921Z,101781.69
2022-08-12T07:30:05.497Z,101788.03
2022-08-12T07:32:32.074Z,101789.34
2022-08-12T07:34:58.646Z,101786.94
2022-08-12T07:37:25.112Z,101780.06
2022-08-12T07:39:59.939Z,101784.25
2022-08-12T07:42:28.307Z,101782.19
2022-08-12T07:44:55.930Z,101780.00
2022-08-12T07:47:23.276Z,101794.53
2022-08-12T07:50:04.219Z,101779.72
2022-08-12T07:52:38.004Z,101786.03
2022-08-12T07:55:05.053Z,101780.72
2022-08-12T07:57:34.722Z,101782.03
2022-08-12T08:00:06.246Z,101786.25
2022-08-12T08:02:36.319Z,101776.72
2022-08-12T08:05:04.573Z,101780.16
2022-08-12T08:07:31.477Z,101780.63
2022-08-12T08:10:00.736Z,101785.63
2022-08-12T08:12:47.434Z,101775.81
2022-08-12T08:15:15.486Z,101772.13
2022-08-12T08:17:59.484Z,101771.03
2022-08-12T08:20:30.114Z,101777.34
2022-08-12T08:22:58.342Z,101770.69
2022-08-12T08:25:35.862Z,101775.66
2022-08-12T08:28:10.884Z,101776.41
2022-08-12T08:30:43.750Z,101769.28
2022-08-12T08:33:24.644Z,101773.72
2022-08-12T08:36:00.681Z,101772.34
2022-08-12T08:38:31.808Z,101768.91
2022-08-12T08:42:19.027Z,101772.53
2022-08-12T08:44:07.338Z,101778.88
2022-08-12T08:46:37.395Z,101775.41
2022-08-12T08:49:05.204Z,101770.63
2022-08-12T08:51:31.868Z,101777.94
2022-08-12T08:53:58.313Z,101776.06
2022-08-12T08:56:24.820Z,101777.06
2022-08-12T08:58:52.171Z,101771.19
2022-08-12T09:01:22.363Z,101772.22
2022-08-12T09:06:37.397Z,101762.56
2022-08-12T09:12:13.278Z,101778.03
2022-08-12T09:14:46.943Z,101768.75
2022-08-12T09:17:21.330Z,101768.44
2022-08-12T09:19:56.896Z,101773.34
2022-08-12T09:22:28.520Z,101774.88
2022-08-12T09:24:55.996Z,101769.28
2022-08-12T09:30:16.528Z,101769.16
2022-08-12T09:33:03.991Z,101765.84
2022-08-12T09:35:44.154Z,101758.06
2022-08-12T09:38:27.835Z,101763.81
2022-08-12T09:41:03.812Z,101756.03
2022-08-12T09:44:16.980Z,101753.34
2022-08-12T09:46:53.844Z,101750.59
2022-08-12T09:49:23.946Z,101749.72
2022-08-12T09:51:50.683Z,101747.28
2022-08-12T09:54:32.926Z,101743.94
2022-08-12T09:58:44.740Z,101744.34
2022-08-12T10:00:13.961Z,101744.88
2022-08-12T10:03:00.838Z,101732.59
2022-08-12T10:06:27.238Z,101743.59
2022-08-12T10:08:17.246Z,101725.22
2022-08-12T10:11:04.311Z,101728.03
2022-08-12T10:13:42.582Z,101726.94
2022-08-12T10:16:18.761Z,101729.19
2022-08-12T10:18:51.736Z,101724.28
2022-08-12T10:21:38.783Z,101715.19
2022-08-12T10:24:09.368Z,101710.34
2022-08-12T10:26:58.060Z,101711.59
2022-08-12T10:30:02.858Z,101702.28
2022-08-12T10:32:45.135Z,101704.06
2022-08-12T10:35:15.689Z,101709.81
2022-08-12T10:38:39.319Z,101704.44
2022-08-12T10:40:33.382Z,101699.06
2022-08-12T10:43:20.347Z,101694.78
2022-08-12T10:45:49.322Z,101698.63
2022-08-12T10:48:21.624Z,101693.00
2022-08-12T10:50:58.577Z,101684.47
2022-08-12T10:53:43.900Z,101673.81
2022-08-12T10:56:13.896Z,101671.88
2022-08-12T10:58:40.462Z,101680.75
2022-08-12T11:01:49.715Z,101671.44
2022-08-12T11:04:27.372Z,101670.75
2022-08-12T11:07:06.727Z,101671.31
2022-08-12T11:10:00.698Z,101663.75
2022-08-12T11:12:55.408Z,101663.44
2022-08-12T11:15:20.713Z,101671.69
2022-08-12T11:17:53.938Z,101672.25
2022-08-12T11:20:29.064Z,101659.13
2022-08-12T11:23:03.909Z,101654.47
2022-08-12T11:25:56.128Z,101646.16
2022-08-12T11:28:34.647Z,101652.47
2022-08-12T11:31:04.949Z,101647.06
2022-08-12T11:34:06.098Z,101649.06
2022-08-12T11:36:18.195Z,101651.09
2022-08-12T11:38:50.390Z,101645.25
2022-08-12T11:41:28.130Z,101644.06
2022-08-12T11:44:35.978Z,101647.22
2022-08-12T11:46:52.845Z,101643.75
2022-08-12T11:49:31.579Z,101645.28
2022-08-12T11:52:03.672Z,101645.38
2022-08-12T11:54:31.441Z,101644.44
2022-08-12T11:57:02.230Z,101642.38
2022-08-12T12:02:20.095Z,101635.38
2022-08-12T12:04:46.970Z,101632.91
2022-08-12T12:07:22.563Z,101623.75
2022-08-12T12:09:53.473Z,101626.31
2022-08-12T12:12:24.816Z,101619.13
2022-08-12T12:14:54.160Z,101631.03
2022-08-12T12:17:21.738Z,101623.81
2022-08-12T12:19:48.669Z,101620.34
2022-08-12T12:22:15.589Z,101623.50
2022-08-12T12:24:51.085Z,101615.50
2022-08-12T12:28:03.750Z,101623.13
2022-08-12T12:30:19.354Z,101617.50
2022-08-12T12:32:55.256Z,101624.97
2022-08-12T12:36:18.609Z,101609.97
2022-08-12T12:38:13.098Z,101612.88
2022-08-12T12:40:43.789Z,101607.66
2022-08-12T12:43:12.481Z,101609.44
2022-08-12T12:45:44.487Z,101594.63
2022-08-12T12:48:20.510Z,101609.88
2022-08-12T12:51:10.336Z,101594.41
2022-08-12T12:54:08.129Z,101600.28
2022-08-12T12:56:34.285Z,101594.09
2022-08-12T12:59:03.672Z,101601.50
2022-08-12T13:01:33.007Z,101592.91
2022-08-12T13:04:02.612Z,101587.88
2022-08-12T13:06:30.439Z,101583.41
2022-08-12T13:09:02.533Z,101593.78
2022-08-12T13:11:41.255Z,101593.78
2022-08-12T13:14:12.677Z,101583.59
2022-08-12T13:16:56.387Z,101590.66
2022-08-12T13:19:36.024Z,101584.03
2022-08-12T13:22:18.580Z,101580.72
2022-08-12T13:24:51.855Z,101586.00
2022-08-12T13:27:21.399Z,101580.91
2022-08-12T13:29:48.883Z,101581.53
2022-08-12T13:32:30.767Z,101583.88
2022-08-12T13:35:03.978Z,101585.25
2022-08-12T13:37:43.911Z,101584.34
2022-08-12T13:40:17.942Z,101581.59
2022-08-12T13:42:48.699Z,101584.34
2022-08-12T13:45:17.801Z,101582.41
2022-08-12T13:48:04.385Z,101580.25
2022-08-12T13:50:37.405Z,101573.25
2022-08-12T13:53:23.746Z,101568.59
2022-08-12T13:55:59.783Z,101557.28
2022-08-12T13:58:30.672Z,101558.47
2022-08-12T14:01:01.360Z,101554.75
2022-08-12T14:03:28.594Z,101551.81
2022-08-12T14:06:15.811Z,101558.66
2022-08-12T14:08:43.613Z,101565.13
2022-08-12T14:11:12.520Z,101557.88
2022-08-12T14:14:03.691Z,101551.06
2022-08-12T14:16:46.790Z,101554.59
2022-08-12T14:19:22.021Z,101562.00
2022-08-12T14:22:01.299Z,101554.59
2022-08-12T14:24:40.820Z,101551.84
2022-08-12T14:27:12.007Z,101541.09
2022-08-12T14:30:05.135Z,101558.91
2022-08-12T14:32:28.628Z,101562.59
2022-08-12T14:34:59.202Z,101556.94
2022-08-12T14:37:56.899Z,101561.06
2022-08-12T14:40:18.720Z,101556.19
2022-08-12T14:42:49.907Z,101553.03
2022-08-12T14:45:17.864Z,101552.25
2022-08-12T14:47:58.668Z,101542.13
2022-08-12T14:50:58.127Z,101550.72
2022-08-12T14:54:49.942Z,101547.16
2022-08-12T14:59:20.598Z,101530.19
2022-08-12T15:01:50.799Z,101531.16
2022-08-12T15:04:22.481Z,101530.38
2022-08-12T15:06:52.307Z,101525.72
2022-08-12T15:09:19.444Z,101528.41
2022-08-12T15:12:04.146Z,101530.19
2022-08-12T15:14:32.151Z,101526.88
2022-08-12T15:17:02.763Z,101528.47
2022-08-12T15:20:30.870Z,101538.25
2022-08-12T15:22:38.455Z,101522.44
2022-08-12T15:25:07.446Z,101531.22
2022-08-12T15:28:04.438Z,101527.31
2022-08-12T15:30:24.732Z,101518.31
2022-08-12T15:32:53.527Z,101516.94
2022-08-12T15:35:23.969Z,101512.84
2022-08-12T15:38:18.768Z,101517.72
2022-08-12T15:40:49.334Z,101509.31
2022-08-12T15:44:16.584Z,101518.88
2022-08-12T15:46:07.777Z,101522.22
2022-08-12T15:48:46.669Z,101519.88
2022-08-12T15:51:57.297Z,101512.63
2022-08-12T15:54:33.934Z,101515.38
2022-08-12T15:57:03.311Z,101510.50
2022-08-12T15:59:51.335Z,101514.38
2022-08-12T16:02:18.407Z,101511.06
2022-08-12T16:04:50.457Z,101509.28
2022-08-12T16:07:29.706Z,101504.22
2022-08-12T16:10:06.580Z,101510.47
2022-08-12T16:12:54.589Z,101499.91
2022-08-12T16:15:29.526Z,101504.00
2022-08-12T16:18:15.288Z,101501.44
2022-08-12T16:20:46.740Z,101505.75
2022-08-12T16:23:35.894Z,101504.19
2022-08-12T16:26:06.410Z,101501.81
2022-08-12T16:28:41.710Z,101502.94
2022-08-12T16:31:12.424Z,101496.69
2022-08-12T16:33:58.678Z,101503.75
2022-08-12T16:36:31.117Z,101496.66
2022-08-12T16:39:01.603Z,101496.25
2022-08-12T16:41:29.413Z,101492.66
2022-08-12T16:44:05.793Z,101496.16
2022-08-12T16:46:33.761Z,101493.78
2022-08-12T16:49:04.342Z,101489.72
2022-08-12T16:51:40.223Z,101492.59
2022-08-12T16:54:14.271Z,101483.38
2022-08-12T16:56:50.694Z,101492.75
2022-08-12T16:59:22.569Z,101487.59
2022-08-12T17:01:50.797Z,101483.47
2022-08-12T17:04:18.801Z,101483.81
2022-08-12T17:06:47.900Z,101480.66
2022-08-12T17:09:17.880Z,101480.22
2022-08-12T17:11:49.497Z,101478.88
2022-08-12T17:14:16.379Z,101483.38
2022-08-12T17:16:42.943Z,101475.91
2022-08-12T17:19:13.922Z,101476.88
2022-08-12T17:21:51.980Z,101474.72
2022-08-12T17:24:32.371Z,101474.72
2022-08-12T17:27:00.790Z,101478.59
2022-08-12T17:29:32.032Z,101482.34
2022-08-12T17:32:14.202Z,101469.63
2022-08-12T17:35:00.081Z,101471.19
2022-08-12T17:37:26.911Z,101475.06
2022-08-12T17:40:13.646Z,101470.38
2022-08-12T17:42:47.634Z,101468.69
2022-08-12T17:45:19.327Z,101476.69
2022-08-12T17:48:02.281Z,101479.63
2022-08-12T17:50:38.713Z,101484.56
2022-08-12T17:53:08.109Z,101490.03
2022-08-12T17:55:47.378Z,101484.75
2022-08-12T17:58:37.443Z,101478.69
2022-08-12T18:01:06.089Z,101478.69
2022-08-12T18:04:05.654Z,101483.00
2022-08-12T18:06:27.963Z,101485.94
2022-08-12T18:08:56.696Z,101481.84
2022-08-12T18:12:06.112Z,101488.50
2022-08-12T18:14:32.671Z,101492.03
2022-08-12T18:17:05.717Z,101487.38
2022-08-12T18:20:05.937Z,101493.84
2022-08-12T18:22:39.394Z,101491.50
2022-08-12T18:25:37.818Z,101493.28
2022-08-12T18:28:15.746Z,101497.44
2022-08-12T18:30:52.954Z,101497.03
2022-08-12T18:33:24.934Z,101496.28
2022-08-12T18:35:55.683Z,101501.19
2022-08-12T18:38:25.596Z,101494.94
2022-08-12T18:41:21.333Z,101497.72
2022-08-12T18:44:00.966Z,101495.75
2022-08-12T18:46:45.728Z,101496.13
2022-08-12T18:49:21.588Z,101495.00
2022-08-12T18:52:02.316Z,101502.84
2022-08-12T18:54:35.817Z,101506.75
2022-08-12T18:57:16.109Z,101507.19
2022-08-12T19:00:02.300Z,101500.94
2022-08-12T19:02:36.371Z,101504.69
2022-08-12T19:05:09.805Z,101497.06
2022-08-12T19:07:49.223Z,101507.03
2022-08-12T19:10:25.091Z,101506.50
2022-08-12T19:13:15.651Z,101503.19
2022-08-12T19:15:47.836Z,101509.25
2022-08-12T19:18:14.848Z,101511.81
2022-08-12T19:20:42.810Z,101501.84
2022-08-12T19:23:16.479Z,101512.97
2022-08-12T19:26:00.344Z,101506.75
2022-08-12T19:28:35.728Z,101509.28
2022-08-12T19:31:56.005Z,101517.31
2022-08-12T19:38:03.499Z,101513.03
2022-08-12T19:40:30.809Z,101512.25
2022-08-12T19:43:01.888Z,101510.31
2022-08-12T19:45:43.516Z,101513.59
2022-08-12T19:48:18.802Z,101509.53
2022-08-12T19:50:50.390Z,101519.28
2022-08-12T19:53:22.999Z,101515.75
2022-08-12T19:55:53.249Z,101517.50
2022-08-12T19:58:21.153Z,101522.97
2022-08-12T20:00:53.472Z,101524.72
2022-08-12T20:03:38.485Z,101525.69
2022-08-12T20:06:13.646Z,101522.94
2022-08-12T20:08:48.838Z,101523.91
2022-08-12T20:12:11.400Z,101524.88
2022-08-12T20:14:07.981Z,101528.56
2022-08-12T20:16:57.886Z,101531.88
2022-08-12T20:19:52.718Z,101522.50
2022-08-12T20:22:24.565Z,101529.88
2022-08-12T20:25:01.333Z,101522.84
2022-08-12T20:28:04.218Z,101531.19
2022-08-12T20:30:16.985Z,101526.31
2022-08-12T20:32:57.902Z,101532.13
2022-08-12T20:36:07.066Z,101531.72
2022-08-12T20:38:27.167Z,101528.97
2022-08-12T20:40:55.738Z,101532.84
2022-08-12T20:43:28.027Z,101534.00
2022-08-12T20:45:57.334Z,101537.88
2022-08-12T20:48:26.219Z,101537.25
2022-08-12T20:51:04.490Z,101533.13
2022-08-12T20:53:57.855Z,101531.16
2022-08-12T20:56:34.545Z,101533.44
2022-08-12T20:59:14.888Z,101532.25
2022-08-12T21:01:48.528Z,101539.00
2022-08-12T21:04:36.838Z,101540.53
2022-08-12T21:07:09.186Z,101543.81
2022-08-12T21:09:44.372Z,101539.47
2022-08-12T21:12:28.222Z,101538.25
2022-08-12T21:15:23.837Z,101541.34
2022-08-12T21:18:11.717Z,101543.63
2022-08-12T21:20:48.677Z,101548.28
2022-08-12T21:23:19.089Z,101549.22
2022-08-12T21:25:46.093Z,101553.28
2022-08-12T21:28:14.332Z,101554.41
2022-08-12T21:31:11.041Z,101544.78
2022-08-12T21:33:45.565Z,101553.91
2022-08-12T21:36:22.763Z,101557.75
2022-08-12T21:39:01.866Z,101557.31
2022-08-12T21:41:46.054Z,101547.88
2022-08-12T21:45:43.587Z,101562.06
2022-08-12T21:47:20.514Z,101557.94
2022-08-12T21:50:06.541Z,101560.19
2022-08-12T21:52:40.880Z,101559.78
2022-08-12T21:55:17.954Z,101560.69
2022-08-12T21:57:53.662Z,101557.34
2022-08-12T22:00:33.279Z,101558.47
2022-08-12T22:04:04.218Z,101559.38
2022-08-12T22:06:20.384Z,101554.44
2022-08-12T22:09:03.669Z,101559.84
2022-08-12T22:11:41.903Z,101559.41
2022-08-12T22:14:10.279Z,101559.75
2022-08-12T22:16:46.947Z,101565.16
2022-08-12T22:19:19.144Z,101563.91
2022-08-12T22:21:48.253Z,101566.38
2022-08-12T22:24:26.936Z,101559.88
2022-08-12T22:26:57.277Z,101568.41
2022-08-12T22:29:42.148Z,101553.16
2022-08-12T22:32:11.455Z,101570.44
2022-08-12T22:34:39.181Z,101555.41
2022-08-12T22:37:05.856Z,101569.75
2022-08-12T22:39:44.163Z,101571.44
2022-08-12T22:42:30.698Z,101559.09
2022-08-12T22:45:16.466Z,101564.50
2022-08-12T22:47:55.203Z,101553.75
2022-08-12T22:50:28.734Z,101554.06
2022-08-12T22:53:15.453Z,101550.25
2022-08-12T22:56:00.066Z,101554.75
2022-08-12T22:58:33.667Z,101555.63
2022-08-12T23:01:02.412Z,101558.88
2022-08-12T23:03:49.544Z,101553.13
2022-08-12T23:06:19.790Z,101549.19
2022-08-12T23:08:47.916Z,101553.81
2022-08-12T23:11:16.262Z,101552.00
2022-08-12T23:13:55.042Z,101552.88
2022-08-12T23:16:31.784Z,101559.81
2022-08-12T23:19:22.817Z,101551.19
2022-08-12T23:22:05.287Z,101556.00
2022-08-12T23:24:55.984Z,101547.91
2022-08-12T23:27:51.613Z,101562.25
2022-08-12T23:30:24.934Z,101563.13
2022-08-12T23:32:59.853Z,101559.75
2022-08-12T23:35:45.323Z,101547.41
2022-08-12T23:38:30.780Z,101558.84
2022-08-12T23:41:03.739Z,101561.28
2022-08-12T23:43:39.076Z,101556.34
2022-08-12T23:46:09.186Z,101551.63
2022-08-12T23:48:37.570Z,101552.72
2022-08-12T23:51:21.703Z,101561.25
2022-08-12T23:53:50.873Z,101543.81
2022-08-12T23:56:17.650Z,101557.38
2022-08-12T23:58:49.716Z,101557.69
